sensor_id;sensor_type;location;lat;lon;timestamp;temperature;humidity
55219;DHT22;41088;44.012;20.902;2022-09-09T00:32:37;563.20;2432.00
55219;DHT22;41088;44.012;20.902;2022-09-09T00:35:14;563.20;2432.00
55219;DHT22;41088;44.012;20.902;2022-09-09T00:37:42;563.20;2432.00
55219;DHT22;41088;44.012;20.902;2022-09-09T00:40:34;538.50;2406.40
55219;DHT22;41088;44.012;20.902;2022-09-09T00:43:28;538.40;2406.40
55219;DHT22;41088;44.012;20.902;2022-09-09T00:48:52;538.50;2406.40
55219;DHT22;41088;44.012;20.902;2022-09-09T00:51:25;538.50;2406.40
55219;DHT22;41088;44.012;20.902;2022-09-09T00:54:08;538.50;2406.40
55219;DHT22;41088;44.012;20.902;2022-09-09T01:02:07;538.40;2406.40
55219;DHT22;41088;44.012;20.902;2022-09-09T01:04:39;538.40;2406.40
55219;DHT22;41088;44.012;20.902;2022-09-09T02:53:29;563.20;2432.00
55219;DHT22;41088;44.012;20.902;2022-09-09T02:56:04;538.50;2406.40
55219;DHT22;41088;44.012;20.902;2022-09-09T02:58:35;563.20;2432.00
55219;DHT22;41088;44.012;20.902;2022-09-09T03:01:02;538.50;2406.40
55219;DHT22;41088;44.012;20.902;2022-09-09T03:03:28;538.50;2406.40
55219;DHT22;41088;44.012;20.902;2022-09-09T03:05:54;538.50;2406.40
55219;DHT22;41088;44.012;20.902;2022-09-09T03:08:22;538.50;2406.40
55219;DHT22;41088;44.012;20.902;2022-09-09T03:10:48;563.20;2432.00
55219;DHT22;41088;44.012;20.902;2022-09-09T03:13:14;538.50;2406.40
55219;DHT22;41088;44.012;20.902;2022-09-09T03:15:41;538.50;2406.40
55219;DHT22;41088;44.012;20.902;2022-09-09T03:18:07;538.50;2406.40
55219;DHT22;41088;44.012;20.902;2022-09-09T03:20:33;538.50;2406.40
55219;DHT22;41088;44.012;20.902;2022-09-09T03:22:59;563.20;2432.00
55219;DHT22;41088;44.012;20.902;2022-09-09T03:25:26;563.20;2432.00
55219;DHT22;41088;44.012;20.902;2022-09-09T03:27:53;563.20;2432.00
55219;DHT22;41088;44.012;20.902;2022-09-09T03:30:22;563.20;2432.00
55219;DHT22;41088;44.012;20.902;2022-09-09T03:32:48;563.20;2432.00
55219;DHT22;41088;44.012;20.902;2022-09-09T03:35:14;563.20;2432.00
55219;DHT22;41088;44.012;20.902;2022-09-09T03:37:42;563.20;2432.00
55219;DHT22;41088;44.012;20.902;2022-09-09T03:40:08;563.30;2432.00
55219;DHT22;41088;44.012;20.902;2022-09-09T03:42:36;563.50;2432.00
55219;DHT22;41088;44.012;20.902;2022-09-09T03:45:07;563.50;2432.00
55219;DHT22;41088;44.012;20.902;2022-09-09T03:47:34;563.50;2432.00
55219;DHT22;41088;44.012;20.902;2022-09-09T03:50:00;563.50;2432.00
55219;DHT22;41088;44.012;20.902;2022-09-09T03:52:26;563.50;2432.00
55219;DHT22;41088;44.012;20.902;2022-09-09T03:54:53;563.50;2432.00
55219;DHT22;41088;44.012;20.902;2022-09-09T03:57:20;563.50;2432.00
55219;DHT22;41088;44.012;20.902;2022-09-09T04:51:16;563.80;2432.00
55219;DHT22;41088;44.012;20.902;2022-09-09T04:53:42;563.80;2432.00
55219;DHT22;41088;44.012;20.902;2022-09-09T04:56:13;563.70;2432.00
55219;DHT22;41088;44.012;20.902;2022-09-09T04:58:40;563.70;2432.00
55219;DHT22;41088;44.012;20.902;2022-09-09T05:01:21;563.70;2432.00
55219;DHT22;41088;44.012;20.902;2022-09-09T05:03:47;563.80;2432.00
55219;DHT22;41088;44.012;20.902;2022-09-09T05:06:18;563.80;2432.00
55219;DHT22;41088;44.012;20.902;2022-09-09T05:08:45;563.90;2432.00
55219;DHT22;41088;44.012;20.902;2022-09-09T07:11:50;614.70;2432.00
55219;DHT22;41088;44.012;20.902;2022-09-09T07:14:20;614.80;2432.00
55219;DHT22;41088;44.012;20.902;2022-09-09T07:16:47;615.10;2432.00
55219;DHT22;41088;44.012;20.902;2022-09-09T07:19:14;615.30;2432.00
55219;DHT22;41088;44.012;20.902;2022-09-09T07:24:06;640.70;2432.00
55219;DHT22;41088;44.012;20.902;2022-09-09T07:26:33;640.70;2432.00
55219;DHT22;41088;44.012;20.902;2022-09-09T07:28:59;640.60;2432.00
55219;DHT22;41088;44.012;20.902;2022-09-09T07:31:36;640.70;2432.00
55219;DHT22;41088;44.012;20.902;2022-09-09T07:36:36;665.80;2432.00
55219;DHT22;41088;44.012;20.902;2022-09-09T07:41:35;665.80;2432.00
55219;DHT22;41088;44.012;20.902;2022-09-09T07:44:07;665.60;2432.00
55219;DHT22;41088;44.012;20.902;2022-09-09T07:46:34;640.90;2432.00
55219;DHT22;41088;44.012;20.902;2022-09-09T07:49:00;640.70;2432.00
55219;DHT22;41088;44.012;20.902;2022-09-09T07:51:29;640.70;2432.00
55219;DHT22;41088;44.012;20.902;2022-09-09T08:26:13;666.10;2432.00
55219;DHT22;41088;44.012;20.902;2022-09-09T08:28:40;666.10;2432.00
55219;DHT22;41088;44.012;20.902;2022-09-09T08:31:31;666.10;2432.00
55219;DHT22;41088;44.012;20.902;2022-09-09T08:33:56;666.10;2432.00
55219;DHT22;41088;44.012;20.902;2022-09-09T08:36:25;666.10;2432.00
55219;DHT22;41088;44.012;20.902;2022-09-09T08:38:56;666.20;2432.00
55219;DHT22;41088;44.012;20.902;2022-09-09T08:50:13;691.90;2432.00
55219;DHT22;41088;44.012;20.902;2022-09-09T08:52:55;691.80;2432.00
55219;DHT22;41088;44.012;20.902;2022-09-09T08:58:17;716.80;2432.00
55219;DHT22;41088;44.012;20.902;2022-09-09T10:02:13;717.00;2432.00
55219;DHT22;41088;44.012;20.902;2022-09-09T10:04:40;716.80;2432.00
55219;DHT22;41088;44.012;20.902;2022-09-09T10:07:20;692.10;2432.00
55219;DHT22;41088;44.012;20.902;2022-09-09T10:09:53;692.00;2432.00
55219;DHT22;41088;44.012;20.902;2022-09-09T10:41:24;692.00;2432.00
55219;DHT22;41088;44.012;20.902;2022-09-09T10:50:11;717.00;2432.00
55219;DHT22;41088;44.012;20.902;2022-09-09T10:55:56;717.10;2432.00
55219;DHT22;41088;44.012;20.902;2022-09-09T10:58:31;717.10;2432.00
55219;DHT22;41088;44.012;20.902;2022-09-09T11:01:06;717.30;2432.00
55219;DHT22;41088;44.012;20.902;2022-09-09T11:03:35;717.30;2432.00
55219;DHT22;41088;44.012;20.902;2022-09-09T11:06:07;717.30;2432.00
55219;DHT22;41088;44.012;20.902;2022-09-09T11:08:41;717.10;2432.00
55219;DHT22;41088;44.012;20.902;2022-09-09T11:19:29;717.00;2432.00
55219;DHT22;41088;44.012;20.902;2022-09-09T11:21:56;717.00;2432.00
55219;DHT22;41088;44.012;20.902;2022-09-09T11:24:37;717.00;2432.00
55219;DHT22;41088;44.012;20.902;2022-09-09T11:27:26;692.00;2432.00
55219;DHT22;41088;44.012;20.902;2022-09-09T11:30:15;691.90;2432.00
55219;DHT22;41088;44.012;20.902;2022-09-09T11:33:11;691.90;2432.00
55219;DHT22;41088;44.012;20.902;2022-09-09T11:36:01;691.80;2432.00
55219;DHT22;41088;44.012;20.902;2022-09-09T11:38:46;691.80;2432.00
55219;DHT22;41088;44.012;20.902;2022-09-09T11:54:28;716.80;2432.00
55219;DHT22;41088;44.012;20.902;2022-09-09T11:56:58;717.00;2432.00
55219;DHT22;41088;44.012;20.902;2022-09-09T11:59:26;717.20;2432.00
55219;DHT22;41088;44.012;20.902;2022-09-09T12:04:30;717.50;2432.00
55219;DHT22;41088;44.012;20.902;2022-09-09T12:09:52;742.50;2432.00
55219;DHT22;41088;44.012;20.902;2022-09-09T12:12:34;742.80;2380.80
55219;DHT22;41088;44.012;20.902;2022-09-09T12:20:19;743.20;2329.60
55219;DHT22;41088;44.012;20.902;2022-09-09T12:27:50;743.30;2432.00
55219;DHT22;41088;44.012;20.902;2022-09-09T12:30:24;743.20;2432.00
55219;DHT22;41088;44.012;20.902;2022-09-09T12:33:08;743.20;2329.60
55219;DHT22;41088;44.012;20.902;2022-09-09T12:35:36;768.00;2304.00
55219;DHT22;41088;44.012;20.902;2022-09-09T12:43:21;768.30;2304.00
55219;DHT22;41088;44.012;20.902;2022-09-09T12:45:51;768.00;2278.40
55219;DHT22;41088;44.012;20.902;2022-09-09T12:48:44;768.00;2252.80
55219;DHT22;41088;44.012;20.902;2022-09-09T12:51:25;768.10;2252.80
55219;DHT22;41088;44.012;20.902;2022-09-09T12:53:53;768.50;2227.20
55219;DHT22;41088;44.012;20.902;2022-09-09T12:56:22;768.30;2227.20
55219;DHT22;41088;44.012;20.902;2022-09-09T12:58:56;768.10;2227.20
55219;DHT22;41088;44.012;20.902;2022-09-09T13:01:29;768.00;2227.20
55219;DHT22;41088;44.012;20.902;2022-09-09T13:03:56;743.10;2252.80
55219;DHT22;41088;44.012;20.902;2022-09-09T13:06:31;743.20;2278.40
55219;DHT22;41088;44.012;20.902;2022-09-09T13:08:59;768.00;2278.40
55219;DHT22;41088;44.012;20.902;2022-09-09T13:11:42;768.20;2252.80
55219;DHT22;41088;44.012;20.902;2022-09-09T13:14:19;768.30;2227.20
55219;DHT22;41088;44.012;20.902;2022-09-09T13:16:56;768.10;2227.20
55219;DHT22;41088;44.012;20.902;2022-09-09T13:19:24;743.30;2278.40
55219;DHT22;41088;44.012;20.902;2022-09-09T13:21:55;743.30;2252.80
55219;DHT22;41088;44.012;20.902;2022-09-09T14:07:57;742.80;2432.00
55219;DHT22;41088;44.012;20.902;2022-09-09T14:10:24;742.70;2432.00
55219;DHT22;41088;44.012;20.902;2022-09-09T14:12:50;742.70;2432.00
55219;DHT22;41088;44.012;20.902;2022-09-09T14:15:18;742.60;2432.00
55219;DHT22;41088;44.012;20.902;2022-09-09T14:17:45;742.70;2432.00
55219;DHT22;41088;44.012;20.902;2022-09-09T14:20:11;742.50;2432.00
55219;DHT22;41088;44.012;20.902;2022-09-09T14:22:43;742.50;2432.00
55219;DHT22;41088;44.012;20.902;2022-09-09T14:32:34;742.50;2432.00
55219;DHT22;41088;44.012;20.902;2022-09-09T14:35:00;742.40;2432.00
55219;DHT22;41088;44.012;20.902;2022-09-09T14:37:27;717.60;2432.00
55219;DHT22;41088;44.012;20.902;2022-09-09T14:39:54;717.40;2432.00
55219;DHT22;41088;44.012;20.902;2022-09-09T14:42:21;717.10;2432.00
55219;DHT22;41088;44.012;20.902;2022-09-09T14:44:47;717.00;2432.00
55219;DHT22;41088;44.012;20.902;2022-09-09T14:47:13;716.90;2432.00
55219;DHT22;41088;44.012;20.902;2022-09-09T14:49:42;716.80;2432.00
55219;DHT22;41088;44.012;20.902;2022-09-09T14:52:08;716.80;2432.00
55219;DHT22;41088;44.012;20.902;2022-09-09T14:54:34;717.10;2432.00
55219;DHT22;41088;44.012;20.902;2022-09-09T14:57:01;717.30;2432.00
55219;DHT22;41088;44.012;20.902;2022-09-09T14:59:27;717.30;2432.00
55219;DHT22;41088;44.012;20.902;2022-09-09T15:01:53;717.40;2432.00
55219;DHT22;41088;44.012;20.902;2022-09-09T15:04:19;717.40;2432.00
55219;DHT22;41088;44.012;20.902;2022-09-09T15:06:47;717.30;2432.00
55219;DHT22;41088;44.012;20.902;2022-09-09T15:09:14;717.30;2432.00
55219;DHT22;41088;44.012;20.902;2022-09-09T15:11:42;717.30;2432.00
55219;DHT22;41088;44.012;20.902;2022-09-09T15:14:09;717.10;2432.00
55219;DHT22;41088;44.012;20.902;2022-09-09T15:16:35;717.10;2432.00
55219;DHT22;41088;44.012;20.902;2022-09-09T15:19:02;717.00;2432.00
55219;DHT22;41088;44.012;20.902;2022-09-09T15:21:31;716.90;2432.00
55219;DHT22;41088;44.012;20.902;2022-09-09T15:26:24;716.80;2432.00
55219;DHT22;41088;44.012;20.902;2022-09-09T15:28:51;692.00;2432.00
55219;DHT22;41088;44.012;20.902;2022-09-09T15:31:19;691.80;2432.00
55219;DHT22;41088;44.012;20.902;2022-09-09T15:33:57;691.80;2432.00
55219;DHT22;41088;44.012;20.902;2022-09-09T15:36:34;691.80;2432.00
55219;DHT22;41088;44.012;20.902;2022-09-09T15:39:01;691.60;2432.00
55219;DHT22;41088;44.012;20.902;2022-09-09T15:41:28;691.70;2432.00
55219;DHT22;41088;44.012;20.902;2022-09-09T15:48:55;691.50;2432.00
55219;DHT22;41088;44.012;20.902;2022-09-09T15:51:22;691.50;2432.00
55219;DHT22;41088;44.012;20.902;2022-09-09T15:53:53;691.50;2432.00
55219;DHT22;41088;44.012;20.902;2022-09-09T15:56:20;691.50;2432.00
55219;DHT22;41088;44.012;20.902;2022-09-09T15:58:46;691.50;2432.00
55219;DHT22;41088;44.012;20.902;2022-09-09T16:01:12;691.60;2432.00
55219;DHT22;41088;44.012;20.902;2022-09-09T16:03:40;691.60;2432.00
55219;DHT22;41088;44.012;20.902;2022-09-09T16:06:09;691.60;2432.00
55219;DHT22;41088;44.012;20.902;2022-09-09T16:08:40;691.50;2432.00
55219;DHT22;41088;44.012;20.902;2022-09-09T16:11:12;691.50;2432.00
55219;DHT22;41088;44.012;20.902;2022-09-09T16:13:41;691.50;2432.00
55219;DHT22;41088;44.012;20.902;2022-09-09T16:16:08;691.40;2432.00
55219;DHT22;41088;44.012;20.902;2022-09-09T16:18:36;691.30;2432.00
55219;DHT22;41088;44.012;20.902;2022-09-09T16:21:03;691.30;2432.00
55219;DHT22;41088;44.012;20.902;2022-09-09T16:23:34;691.20;2432.00
55219;DHT22;41088;44.012;20.902;2022-09-09T16:26:01;691.20;2432.00
55219;DHT22;41088;44.012;20.902;2022-09-09T16:28:27;666.50;2432.00
55219;DHT22;41088;44.012;20.902;2022-09-09T16:30:56;666.40;2432.00
55219;DHT22;41088;44.012;20.902;2022-09-09T16:33:23;666.40;2432.00
55219;DHT22;41088;44.012;20.902;2022-09-09T16:35:51;666.40;2432.00
55219;DHT22;41088;44.012;20.902;2022-09-09T16:38:17;666.40;2432.00
55219;DHT22;41088;44.012;20.902;2022-09-09T17:19:56;665.90;2432.00
55219;DHT22;41088;44.012;20.902;2022-09-09T17:22:23;665.60;2432.00
55219;DHT22;41088;44.012;20.902;2022-09-09T17:24:52;665.60;2432.00
55219;DHT22;41088;44.012;20.902;2022-09-09T17:59:14;640.80;2432.00
55219;DHT22;41088;44.012;20.902;2022-09-09T23:02:03;588.80;2432.00
55219;DHT22;41088;44.012;20.902;2022-09-09T23:04:29;564.00;2432.00
55219;DHT22;41088;44.012;20.902;2022-09-09T23:06:55;564.00;2432.00
55219;DHT22;41088;44.012;20.902;2022-09-09T23:09:22;564.00;2432.00
55219;DHT22;41088;44.012;20.902;2022-09-09T23:11:47;564.00;2432.00
55219;DHT22;41088;44.012;20.902;2022-09-09T23:14:13;563.90;2432.00
55219;DHT22;41088;44.012;20.902;2022-09-09T23:16:43;563.90;2432.00
55219;DHT22;41088;44.012;20.902;2022-09-09T23:19:13;563.80;2432.00
55219;DHT22;41088;44.012;20.902;2022-09-09T23:21:42;563.80;2432.00
55219;DHT22;41088;44.012;20.902;2022-09-09T23:24:14;563.80;2432.00
55219;DHT22;41088;44.012;20.902;2022-09-09T23:31:42;564.00;2432.00
55219;DHT22;41088;44.012;20.902;2022-09-09T23:34:11;563.70;2432.00
55219;DHT22;41088;44.012;20.902;2022-09-09T23:36:37;563.60;2432.00
55219;DHT22;41088;44.012;20.902;2022-09-09T23:39:06;563.60;2432.00
55219;DHT22;41088;44.012;20.902;2022-09-09T23:41:34;563.50;2432.00
55219;DHT22;41088;44.012;20.902;2022-09-09T23:44:01;563.80;2432.00
55219;DHT22;41088;44.012;20.902;2022-09-09T23:48:55;563.50;2432.00
55219;DHT22;41088;44.012;20.902;2022-09-09T23:51:23;563.50;2432.00
55219;DHT22;41088;44.012;20.902;2022-09-09T23:53:52;563.40;2432.00
55219;DHT22;41088;44.012;20.902;2022-09-09T23:56:27;563.30;2432.00
55219;DHT22;41088;44.012;20.902;2022-09-09T23:58:54;563.30;2432.00
